createdAt,value
2019-04-03T00:00:18.453Z,4.28
2019-04-03T00:04:23.600Z,4.40
2019-04-03T00:08:28.399Z,4.95
2019-04-03T00:12:33.517Z,4.20
2019-04-03T00:16:38.364Z,4.97
2019-04-03T00:20:43.265Z,5.72
2019-04-03T00:24:48.431Z,5.28
2019-04-03T00:28:53.231Z,4.62
2019-04-03T00:32:58.278Z,5.22
2019-04-03T00:37:03.104Z,5.40
2019-04-03T00:41:08.309Z,5.03
2019-04-03T00:45:13.510Z,4.70
2019-04-03T00:49:18.392Z,5.28
2019-04-03T00:53:23.381Z,5.75
2019-04-03T00:57:28.240Z,5.53
2019-04-03T01:01:33.189Z,5.53
2019-04-03T01:05:38.141Z,5.72
2019-04-03T01:09:43.565Z,5.42
2019-04-03T01:13:48.933Z,5.25
2019-04-03T01:17:53.782Z,5.83
2019-04-03T01:21:58.879Z,5.60
2019-04-03T01:26:03.771Z,6.55
2019-04-03T01:30:08.772Z,6.33
2019-04-03T01:34:13.799Z,6.08
2019-04-03T01:38:19.557Z,5.80
2019-04-03T01:42:25.148Z,5.05
2019-04-03T01:46:30.062Z,5.75
2019-04-03T01:50:34.987Z,5.70
2019-04-03T01:54:40.886Z,4.97
2019-04-03T01:58:45.699Z,4.70
2019-04-03T02:02:50.637Z,4.70
2019-04-03T02:06:55.507Z,5.37
2019-04-03T02:11:00.723Z,5.55
2019-04-03T02:15:05.861Z,5.65
2019-04-03T02:19:10.740Z,7.28
2019-04-03T02:23:15.687Z,5.87
2019-04-03T02:27:20.446Z,5.37
2019-04-03T02:31:25.573Z,5.17
2019-04-03T02:35:30.460Z,5.47
2019-04-03T02:39:35.339Z,5.42
2019-04-03T02:43:40.293Z,5.85
2019-04-03T02:47:45.440Z,6.08
2019-04-03T02:51:52.947Z,6.50
2019-04-03T02:55:57.660Z,6.53
2019-04-03T03:00:02.855Z,6.60
2019-04-03T03:04:10.894Z,6.67
2019-04-03T03:08:16.294Z,5.97
2019-04-03T03:12:21.457Z,6.50
2019-04-03T03:16:27.944Z,7.20
2019-04-03T03:20:33.674Z,6.75
2019-04-03T03:24:41.189Z,6.35
2019-04-03T03:28:47.636Z,7.05
2019-04-03T03:33:19.437Z,6.65
2019-04-03T03:37:03.154Z,6.22
2019-04-03T03:41:07.063Z,6.42
2019-04-03T03:45:12.440Z,6.83
2019-04-03T03:49:18.467Z,6.08
2019-04-03T03:53:24.656Z,6.80
2019-04-03T03:57:29.899Z,6.58
2019-04-03T04:01:35.310Z,6.28
2019-04-03T04:05:40.154Z,7.20
2019-04-03T04:09:45.058Z,7.22
2019-04-03T04:13:50.811Z,6.97
2019-04-03T04:17:56.952Z,8.85
2019-04-03T04:22:02.374Z,9.55
2019-04-03T04:26:08.079Z,7.20
2019-04-03T04:30:16.291Z,6.53
2019-04-03T04:34:21.439Z,6.30
2019-04-03T04:38:27.369Z,7.83
2019-04-03T04:42:34.417Z,7.08
2019-04-03T04:46:38.828Z,6.92
2019-04-03T04:50:45.744Z,6.70
2019-04-03T04:54:50.644Z,6.92
2019-04-03T04:58:55.468Z,7.17
2019-04-03T05:03:01.785Z,7.87
2019-04-03T05:07:07.130Z,7.40
2019-04-03T05:11:12.219Z,7.92
2019-04-03T05:15:23.122Z,8.70
2019-04-03T05:19:24.917Z,8.50
2019-04-03T05:23:29.999Z,8.35
2019-04-03T05:27:36.005Z,8.98
2019-04-03T05:31:41.928Z,7.78
2019-04-03T05:35:46.765Z,8.78
2019-04-03T05:39:53.121Z,7.72
2019-04-03T05:44:00.067Z,7.33
2019-04-03T05:48:08.223Z,7.85
2019-04-03T05:52:12.319Z,8.25
2019-04-03T05:56:17.652Z,8.10
2019-04-03T06:00:25.019Z,8.00
2019-04-03T06:04:29.815Z,8.48
2019-04-03T06:08:35.276Z,8.68
2019-04-03T06:12:40.565Z,7.97
2019-04-03T06:16:46.101Z,7.53
2019-04-03T06:20:51.181Z,8.05
2019-04-03T06:24:57.035Z,8.53
2019-04-03T06:29:02.039Z,9.08
2019-04-03T06:33:07.272Z,8.38
2019-04-03T06:37:12.396Z,8.23
2019-04-03T06:41:17.436Z,8.90
2019-04-03T06:45:22.360Z,8.83
2019-04-03T06:49:27.156Z,8.28
2019-04-03T06:53:32.049Z,8.88
2019-04-03T06:57:39.289Z,9.00
2019-04-03T07:01:43.462Z,8.65
2019-04-03T07:05:48.374Z,8.65
2019-04-03T07:09:53.454Z,10.20
2019-04-03T07:13:58.269Z,10.28
2019-04-03T07:18:05.585Z,9.68
2019-04-03T07:22:09.763Z,9.85
2019-04-03T07:26:14.743Z,10.20
2019-04-03T07:30:21.765Z,9.68
2019-04-03T07:34:26.592Z,10.18
2019-04-03T07:38:31.429Z,11.00
2019-04-03T07:42:36.420Z,10.58
2019-04-03T07:46:41.160Z,11.18
2019-04-03T07:50:46.083Z,10.15
2019-04-03T07:54:52.885Z,10.45
2019-04-03T07:58:57.511Z,11.20
2019-04-03T08:03:02.477Z,10.98
2019-04-03T08:07:07.631Z,11.68
2019-04-03T08:11:14.859Z,11.28
2019-04-03T08:15:19.310Z,10.95
2019-04-03T08:19:24.392Z,12.18
2019-04-03T08:23:29.419Z,10.23
2019-04-03T08:27:34.641Z,12.20
2019-04-03T08:31:42.747Z,11.43
2019-04-03T08:35:46.535Z,11.78
2019-04-03T08:39:51.983Z,10.60
2019-04-03T08:43:57.166Z,11.97
2019-04-03T08:48:02.409Z,12.37
2019-04-03T08:52:07.261Z,12.82
2019-04-03T08:56:16.856Z,13.30
2019-04-03T09:00:22.153Z,12.80
2019-04-03T09:04:27.257Z,12.18
2019-04-03T09:08:32.074Z,12.63
2019-04-03T09:12:38.452Z,11.93
2019-04-03T09:16:43.551Z,12.88
2019-04-03T09:20:48.440Z,11.35
2019-04-03T09:24:53.304Z,10.65
2019-04-03T09:28:58.296Z,10.82
2019-04-03T09:33:03.126Z,10.82
2019-04-03T09:37:07.948Z,7.95
2019-04-03T09:41:14.519Z,10.05
2019-04-03T09:45:19.442Z,9.50
2019-04-03T09:49:24.659Z,9.60
2019-04-03T09:53:29.569Z,9.93
2019-04-03T09:57:34.543Z,10.13
2019-04-03T10:01:39.474Z,9.68
2019-04-03T10:05:44.340Z,9.30
2019-04-03T10:09:49.423Z,8.68
2019-04-03T10:13:54.976Z,8.65
2019-04-03T10:18:00.971Z,8.83
2019-04-03T10:22:06.169Z,8.03
2019-04-03T10:26:11.163Z,7.22
2019-04-03T10:30:20.184Z,7.25
2019-04-03T10:34:24.685Z,6.97
2019-04-03T10:38:29.598Z,6.45
2019-04-03T10:42:34.694Z,6.65
2019-04-03T10:46:39.919Z,6.15
2019-04-03T10:50:45.084Z,5.10
2019-04-03T10:54:49.910Z,7.35
2019-04-03T10:58:54.635Z,6.65
2019-04-03T11:02:59.844Z,5.95
2019-04-03T11:07:04.744Z,4.72
2019-04-03T11:11:09.635Z,3.80
2019-04-03T11:15:15.205Z,3.95
2019-04-03T11:19:21.664Z,4.03
2019-04-03T11:23:38.797Z,4.10
2019-04-03T11:27:41.796Z,3.55
2019-04-03T11:31:41.830Z,3.27
2019-04-03T11:35:46.253Z,3.65
2019-04-03T11:40:01.361Z,3.60
2019-04-03T11:43:57.804Z,3.37
2019-04-03T11:48:05.800Z,4.10
2019-04-03T11:52:11.027Z,3.67
2019-04-03T11:56:18.459Z,4.65
2019-04-03T12:00:28.894Z,3.80
2019-04-03T12:04:33.629Z,3.75
2019-04-03T12:08:38.520Z,3.62
2019-04-03T12:12:45.987Z,3.02
2019-04-03T12:16:50.895Z,3.30
2019-04-03T12:20:55.723Z,2.83
2019-04-03T12:25:00.689Z,2.45
2019-04-03T12:29:07.747Z,2.17
2019-04-03T12:33:12.660Z,2.12
2019-04-03T12:37:18.713Z,2.27
2019-04-03T12:41:26.461Z,2.37
2019-04-03T12:45:30.525Z,2.30
2019-04-03T12:49:35.339Z,2.33
2019-04-03T12:53:40.728Z,1.70
2019-04-03T12:57:45.632Z,1.85
2019-04-03T13:01:51.061Z,1.82
2019-04-03T13:05:56.098Z,1.55
2019-04-03T13:10:01.716Z,1.50
2019-04-03T13:14:07.054Z,1.32
2019-04-03T13:18:12.148Z,1.30
2019-04-03T13:22:18.595Z,1.40
2019-04-03T13:26:24.753Z,1.50
2019-04-03T13:30:30.560Z,1.32
2019-04-03T13:34:35.381Z,1.40
2019-04-03T13:38:40.231Z,2.60
2019-04-03T13:42:47.574Z,1.70
2019-04-03T13:46:52.853Z,2.67
2019-04-03T13:50:58.541Z,2.02
2019-04-03T13:55:04.480Z,1.70
2019-04-03T13:59:09.642Z,1.30
2019-04-03T14:03:17.660Z,1.90
2019-04-03T14:07:22.181Z,1.40
2019-04-03T14:11:28.458Z,1.30
2019-04-03T14:15:34.359Z,1.20
2019-04-03T14:19:44.904Z,1.07
2019-04-03T14:23:46.406Z,1.27
2019-04-03T14:27:51.368Z,1.37
2019-04-03T14:31:56.675Z,1.17
2019-04-03T14:36:01.692Z,1.10
2019-04-03T14:40:07.097Z,1.35
2019-04-03T14:44:12.113Z,1.15
2019-04-03T14:48:17.271Z,1.27
2019-04-03T14:52:22.198Z,1.37
2019-04-03T14:56:27.153Z,1.22
2019-04-03T15:00:32.599Z,1.55
2019-04-03T15:04:37.783Z,1.40
2019-04-03T15:08:43.624Z,1.45
2019-04-03T15:12:48.874Z,1.42
2019-04-03T15:16:54.503Z,1.50
2019-04-03T15:20:59.791Z,1.42
2019-04-03T15:25:05.202Z,1.70
2019-04-03T15:29:10.103Z,1.47
2019-04-03T15:33:15.072Z,1.50
2019-04-03T15:37:19.898Z,1.57
2019-04-03T15:41:27.375Z,1.50
2019-04-03T15:45:31.293Z,1.42
2019-04-03T15:49:36.040Z,1.25
2019-04-03T15:53:40.891Z,1.60
2019-04-03T15:57:45.772Z,1.40
2019-04-03T16:01:50.666Z,1.65
2019-04-03T16:05:55.792Z,1.70
2019-04-03T16:10:00.614Z,1.20
2019-04-03T16:14:05.647Z,1.50
2019-04-03T16:18:11.708Z,1.50
2019-04-03T16:22:16.592Z,1.60
2019-04-03T16:26:24.284Z,1.40
2019-04-03T16:30:28.563Z,1.90
2019-04-03T16:34:33.999Z,1.35
2019-04-03T16:38:39.192Z,1.60
2019-04-03T16:42:47.568Z,3.35
2019-04-03T16:46:50.844Z,2.50
2019-04-03T16:50:55.653Z,2.08
2019-04-03T16:55:00.934Z,2.27
2019-04-03T16:59:07.917Z,1.70
2019-04-03T17:03:14.191Z,2.30
2019-04-03T17:07:20.617Z,1.50
2019-04-03T17:11:25.537Z,1.32
2019-04-03T17:15:30.440Z,1.50
2019-04-03T17:19:35.336Z,1.70
2019-04-03T17:23:41.685Z,2.10
2019-04-03T17:27:55.887Z,1.50
2019-04-03T17:31:53.265Z,2.20
2019-04-03T17:35:58.166Z,2.00
2019-04-03T17:40:04.077Z,2.65
2019-04-03T17:44:09.921Z,2.00
2019-04-03T17:48:14.744Z,2.35
2019-04-03T17:52:19.508Z,2.85
2019-04-03T17:56:24.397Z,1.92
2019-04-03T18:00:29.679Z,1.90
2019-04-03T18:04:34.550Z,2.60
2019-04-03T18:08:39.455Z,1.37
2019-04-03T18:12:45.832Z,1.50
2019-04-03T18:16:50.801Z,1.45
2019-04-03T18:20:55.744Z,1.85
2019-04-03T18:25:00.549Z,1.67
2019-04-03T18:29:06.727Z,2.55
2019-04-03T18:33:12.137Z,1.60
2019-04-03T18:37:16.958Z,2.02
2019-04-03T18:41:22.152Z,1.87
2019-04-03T18:45:27.037Z,5.33
2019-04-03T18:49:32.374Z,2.05
2019-04-03T18:53:38.864Z,1.70
2019-04-03T18:57:44.397Z,1.90
2019-04-03T19:01:49.498Z,5.00
2019-04-03T19:05:54.296Z,2.30
2019-04-03T19:10:09.072Z,4.12
2019-04-03T19:14:26.506Z,1.70
2019-04-03T19:18:22.169Z,1.62
2019-04-03T19:22:35.916Z,1.60
2019-04-03T19:26:41.728Z,1.75
2019-04-03T19:30:49.219Z,1.65
2019-04-03T19:34:56.682Z,1.70
2019-04-03T19:39:01.690Z,1.55
2019-04-03T19:43:08.182Z,1.60
2019-04-03T19:47:13.239Z,1.72
2019-04-03T19:51:19.778Z,2.22
2019-04-03T19:55:24.620Z,1.82
2019-04-03T19:59:31.862Z,1.90
2019-04-03T20:03:36.839Z,1.80
2019-04-03T20:07:41.878Z,1.65
2019-04-03T20:11:46.976Z,1.90
2019-04-03T20:15:53.835Z,2.67
2019-04-03T20:19:58.433Z,5.42
2019-04-03T20:24:03.449Z,6.40
2019-04-03T20:28:08.424Z,7.80
2019-04-03T20:32:13.376Z,8.58
2019-04-03T20:36:18.498Z,8.38
2019-04-03T20:40:24.888Z,8.93
2019-04-03T20:44:29.744Z,9.10
2019-04-03T20:48:34.569Z,9.25
2019-04-03T20:52:39.804Z,9.53
2019-04-03T20:56:56.866Z,9.48
2019-04-03T21:01:05.687Z,9.48
2019-04-03T21:04:58.095Z,9.08
2019-04-03T21:09:06.497Z,9.38
2019-04-03T21:13:15.381Z,9.10
2019-04-03T21:17:19.896Z,9.40
2019-04-03T21:21:25.636Z,8.60
2019-04-03T21:25:31.414Z,8.23
2019-04-03T21:29:37.570Z,7.55
2019-04-03T21:33:45.014Z,8.00
2019-04-03T21:37:49.467Z,7.42
2019-04-03T21:41:55.982Z,7.80
2019-04-03T21:46:02.576Z,9.00
2019-04-03T21:50:08.228Z,8.03
2019-04-03T21:54:13.322Z,7.65
2019-04-03T21:58:18.292Z,7.35
2019-04-03T22:02:23.247Z,7.42
2019-04-03T22:06:28.055Z,8.50
2019-04-03T22:10:33.530Z,7.15
2019-04-03T22:14:38.897Z,7.22
2019-04-03T22:18:43.998Z,7.28
2019-04-03T22:22:48.900Z,7.92
2019-04-03T22:26:53.683Z,7.62
2019-04-03T22:30:59.672Z,7.53
2019-04-03T22:35:05.089Z,7.40
2019-04-03T22:39:10.164Z,7.12
2019-04-03T22:43:15.488Z,7.15
2019-04-03T22:47:21.052Z,6.83
2019-04-03T22:51:26.167Z,7.42
2019-04-03T22:55:30.997Z,6.78
2019-04-03T22:59:35.775Z,6.22
2019-04-03T23:03:40.694Z,6.35
2019-04-03T23:07:45.780Z,6.70
2019-04-03T23:11:50.592Z,6.45
2019-04-03T23:15:55.414Z,5.97
2019-04-03T23:20:00.226Z,6.45
2019-04-03T23:24:05.258Z,6.78
2019-04-03T23:28:10.131Z,7.05
2019-04-03T23:32:15.437Z,6.95
2019-04-03T23:36:21.091Z,8.00
2019-04-03T23:40:27.539Z,7.65
2019-04-03T23:44:32.260Z,7.95
2019-04-03T23:48:36.987Z,7.70
2019-04-03T23:52:42.102Z,7.45
2019-04-03T23:56:46.985Z,7.45
